Time;durP1;ratioP1;P1;durP2;ratioP2;P2;SDS_P1;SDS_P2;PMS_P1;PMS_P2;Temp;Humidity;BMP_temperature;BMP_pressure;BME280_temperature;BME280_humidity;BME280_pressure;Samples;Min_cycle;Max_cycle;Signal;HPM_P1;HPM_P2
2022/03/12 02:27:49;;;;;;;51.35;21.50;;;;;;;-0.32;100.00;95222.50;4970480;23;20054;-92
2022/03/12 02:30:15;;;;;;;52.47;20.95;;;;;;;-0.36;100.00;95221.25;4957366;29;20455;-92
2022/03/12 02:32:44;;;;;;;49.22;20.67;;;;;;;-0.47;100.00;95213.00;4941801;29;20039;-92
2022/03/12 02:35:10;;;;;;;51.90;20.95;;;;;;;-0.37;100.00;95211.94;4941794;29;20065;-92
2022/03/12 02:37:36;;;;;;;54.35;21.13;;;;;;;-0.32;100.00;95207.06;4957402;29;20038;-92
2022/03/12 02:40:08;;;;;;;52.63;21.42;;;;;;;-0.32;100.00;95210.44;4941354;29;20066;-91
2022/03/12 02:42:37;;;;;;;54.42;20.48;;;;;;;-0.46;100.00;95213.81;4938352;29;20035;-92
2022/03/12 02:45:07;;;;;;;49.35;21.63;;;;;;;-0.45;100.00;95205.88;4951694;29;20031;-92
2022/03/12 02:47:33;;;;;;;46.90;20.45;;;;;;;-0.35;100.00;95208.22;4941682;29;20447;-92
2022/03/12 02:50:07;;;;;;;51.45;20.23;;;;;;;-0.20;100.00;95210.78;4956800;29;20507;-92
2022/03/12 02:52:40;;;;;;;50.78;21.63;;;;;;;-0.12;100.00;95199.59;4957410;29;20038;-91
2022/03/12 02:55:06;;;;;;;45.28;19.83;;;;;;;-0.23;100.00;95192.31;4941921;29;20035;-91
2022/03/12 02:57:31;;;;;;;46.10;20.48;;;;;;;-0.40;100.00;95191.69;4957423;29;20103;-91
2022/03/12 03:00:06;;;;;;;52.92;20.95;;;;;;;-0.20;100.00;95197.13;4941291;29;20035;-91
2022/03/12 03:02:42;;;;;;;48.40;20.40;;;;;;;-0.22;100.00;95194.72;4957514;29;20054;-92
2022/03/12 03:05:23;;;;;;;49.10;19.83;;;;;;;0.03;100.00;95191.03;4940542;29;20027;-92
2022/03/12 03:07:54;;;;;;;47.20;19.90;;;;;;;-0.03;100.00;95197.69;4941559;29;20031;-92
2022/03/12 03:10:41;;;;;;;50.40;20.70;;;;;;;-0.13;100.00;95199.78;4941433;29;20023;-92
2022/03/12 03:13:20;;;;;;;50.70;19.38;;;;;;;-0.36;100.00;95195.50;4925549;29;20035;-92
2022/03/12 03:15:59;;;;;;;46.70;19.20;;;;;;;-0.36;100.00;95198.91;4941277;29;20093;-91
2022/03/12 03:18:29;;;;;;;48.10;19.33;;;;;;;-0.41;100.00;95195.25;4945706;29;20042;-92
2022/03/12 03:20:56;;;;;;;44.42;18.73;;;;;;;-0.35;100.00;95199.69;4960656;29;20031;-92
2022/03/12 03:23:23;;;;;;;51.15;19.58;;;;;;;-0.52;100.00;95196.47;4961048;29;20103;-91
2022/03/12 03:25:48;;;;;;;44.38;18.30;;;;;;;-0.55;100.00;95192.50;4945115;29;20445;-91
2022/03/12 03:28:14;;;;;;;51.08;20.10;;;;;;;-0.65;100.00;95191.94;4944865;29;20042;-91
2022/03/12 03:30:40;;;;;;;46.30;18.60;;;;;;;-0.77;100.00;95197.53;4960438;29;20432;-91
2022/03/12 03:33:08;;;;;;;44.20;18.70;;;;;;;-0.73;100.00;95197.97;4945080;29;20030;-92
2022/03/12 03:35:34;;;;;;;49.28;20.30;;;;;;;-0.67;100.00;95199.06;4945039;29;20031;-92
2022/03/12 03:38:00;;;;;;;50.72;19.75;;;;;;;-0.64;100.00;95193.53;4944886;29;20424;-92
2022/03/12 03:40:26;;;;;;;44.95;19.38;;;;;;;-0.73;100.00;95198.75;4944514;29;20133;-92
2022/03/12 03:42:53;;;;;;;49.45;20.00;;;;;;;-0.82;100.00;95196.44;4944670;29;20082;-91
2022/03/12 03:45:24;;;;;;;53.90;19.55;;;;;;;-0.70;100.00;95205.34;4944702;29;20122;-92
2022/03/12 03:47:50;;;;;;;49.83;18.58;;;;;;;-0.62;100.00;95199.31;4961109;29;20031;-92
2022/03/12 03:50:18;;;;;;;46.40;19.92;;;;;;;-0.82;100.00;95199.03;4961274;29;20392;-91
2022/03/12 03:52:44;;;;;;;47.28;18.88;;;;;;;-0.56;100.00;95196.06;4960361;29;20035;-92
2022/03/12 03:55:10;;;;;;;48.33;19.10;;;;;;;-0.87;100.00;95194.38;4960465;29;20518;-91
2022/03/12 03:57:35;;;;;;;47.10;20.35;;;;;;;-0.90;100.00;95195.56;4944729;29;20143;-92
2022/03/12 04:00:00;;;;;;;48.83;18.92;;;;;;;-1.04;100.00;95193.75;4960007;29;20343;-91
2022/03/12 04:02:26;;;;;;;53.78;20.48;;;;;;;-1.08;100.00;95195.88;4928754;29;20083;-92
2022/03/12 04:04:53;;;;;;;54.75;19.77;;;;;;;-1.29;100.00;95194.75;4960166;29;20031;-91
2022/03/12 04:07:18;;;;;;;48.35;18.42;;;;;;;-1.31;100.00;95194.09;4960593;29;20432;-92
2022/03/12 04:09:44;;;;;;;44.30;18.38;;;;;;;-1.39;100.00;95194.19;4943717;29;20042;-92
2022/03/12 04:12:09;;;;;;;48.30;18.98;;;;;;;-1.49;100.00;95194.41;4960115;29;20348;-91
2022/03/12 04:14:35;;;;;;;49.17;19.00;;;;;;;-1.42;100.00;95192.75;4944247;29;20130;-92
2022/03/12 04:17:01;;;;;;;42.28;17.85;;;;;;;-1.25;100.00;95192.63;4960112;29;20038;-91
2022/03/12 04:19:30;;;;;;;46.38;19.13;;;;;;;-1.38;100.00;95193.19;4959967;29;20035;-92
2022/03/12 04:21:57;;;;;;;47.03;18.35;;;;;;;-1.38;100.00;95195.78;4943766;29;20416;-91
2022/03/12 04:24:25;;;;;;;46.35;19.85;;;;;;;-1.36;100.00;95196.41;4940793;29;20035;-92
2022/03/12 04:26:52;;;;;;;57.10;20.40;;;;;;;-1.46;100.00;95200.97;4927902;28;20086;-92
2022/03/12 04:29:18;;;;;;;46.20;19.80;;;;;;;-1.60;100.00;95202.50;4954333;29;20440;-92
2022/03/12 04:31:47;;;;;;;51.80;20.60;;;;;;;-1.71;100.00;95199.34;4943906;29;20039;-91
2022/03/12 04:34:13;;;;;;;45.08;19.65;;;;;;;-1.72;100.00;95204.66;4959767;29;20031;-92
2022/03/12 04:36:42;;;;;;;49.92;19.58;;;;;;;-1.76;100.00;95206.78;4943977;29;20027;-92
2022/03/12 04:39:09;;;;;;;61.03;21.17;;;;;;;-1.81;100.00;95203.09;4943904;29;20031;-92
2022/03/12 04:41:35;;;;;;;44.60;19.20;;;;;;;-1.66;100.00;95196.28;4943674;29;20031;-92
2022/03/12 04:44:02;;;;;;;47.85;19.80;;;;;;;-1.61;100.00;95198.34;4959674;29;20035;-91
2022/03/12 04:46:27;;;;;;;52.33;20.48;;;;;;;-1.61;100.00;95201.69;4943407;29;20442;-92
2022/03/12 04:48:56;;;;;;;53.88;20.63;;;;;;;-1.64;100.00;95198.69;4959558;29;20055;-91
2022/03/12 04:51:21;;;;;;;48.75;19.42;;;;;;;-1.68;100.00;95205.94;4943582;29;20073;-92
2022/03/12 04:53:47;;;;;;;50.55;20.35;;;;;;;-1.69;100.00;95209.47;4943602;29;20067;-91
2022/03/12 04:56:12;;;;;;;49.80;21.60;;;;;;;-1.77;100.00;95207.75;4959422;29;20102;-91
2022/03/12 04:58:38;;;;;;;52.28;20.90;;;;;;;-1.88;100.00;95206.34;4941641;29;20329;-91
2022/03/12 05:01:05;;;;;;;51.03;20.77;;;;;;;-1.88;100.00;95208.91;4943137;29;20455;-92
2022/03/12 05:03:31;;;;;;;50.58;21.20;;;;;;;-1.77;100.00;95212.06;4959248;29;20347;-92
2022/03/12 05:06:00;;;;;;;51.92;20.92;;;;;;;-1.67;100.00;95206.72;4943478;29;20122;-92
2022/03/12 05:08:35;;;;;;;50.95;21.60;;;;;;;-1.75;100.00;95208.38;4943285;29;20031;-92
2022/03/12 05:11:01;;;;;;;52.03;20.27;;;;;;;-1.66;100.00;95206.56;4942866;29;20035;-92
2022/03/12 05:13:27;;;;;;;51.20;21.85;;;;;;;-1.49;100.00;95206.44;4943259;29;20348;-92
2022/03/12 05:16:01;;;;;;;49.47;20.25;;;;;;;-1.71;100.00;95207.06;4942991;29;20360;-92
2022/03/12 05:18:27;;;;;;;53.63;21.88;;;;;;;-1.72;100.00;95207.25;4958912;29;20432;-92
2022/03/12 05:20:54;;;;;;;55.28;21.60;;;;;;;-1.76;100.00;95213.66;4926902;29;20027;-92
2022/03/12 05:23:20;;;;;;;43.03;19.20;;;;;;;-1.66;100.00;95213.44;4942950;29;20090;-92
2022/03/12 05:25:47;;;;;;;43.08;18.83;;;;;;;-1.46;100.00;95212.06;4942923;29;20059;-91
2022/03/12 05:28:19;;;;;;;51.05;20.70;;;;;;;-1.60;100.00;95215.34;4943197;29;20035;-92
2022/03/12 05:30:46;;;;;;;48.80;19.38;;;;;;;-1.59;100.00;95215.16;4942442;29;20451;-92
2022/03/12 05:33:16;;;;;;;44.47;20.10;;;;;;;-1.63;100.00;95219.06;4959003;29;20062;-92
2022/03/12 05:35:42;;;;;;;48.55;20.02;;;;;;;-1.52;100.00;95215.28;4929782;29;20344;-92
2022/03/12 05:38:09;;;;;;;49.33;18.95;;;;;;;-1.58;100.00;95216.78;4943145;29;20031;-93
2022/03/12 05:40:38;;;;;;;44.85;18.55;;;;;;;-1.60;100.00;95228.19;4957651;28;20041;-92
2022/03/12 05:43:06;;;;;;;45.15;19.13;;;;;;;-1.42;100.00;95223.59;4942814;29;20031;-92
2022/03/12 05:45:32;;;;;;;45.25;19.05;;;;;;;-1.54;100.00;95226.72;4942636;29;20054;-93
2022/03/12 05:47:58;;;;;;;48.28;18.80;;;;;;;-1.43;100.00;95227.13;4942638;29;20042;-92
2022/03/12 05:50:24;;;;;;;46.58;18.65;;;;;;;-1.48;100.00;95224.28;4958258;29;20039;-92
2022/03/12 05:52:49;;;;;;;48.17;19.48;;;;;;;-1.40;100.00;95225.19;4942506;29;20027;-92
2022/03/12 05:55:20;;;;;;;48.80;18.63;;;;;;;-1.35;100.00;95233.19;4959453;29;20384;-92
2022/03/12 05:57:46;;;;;;;42.90;16.23;;;;;;;-1.36;100.00;95229.81;4942608;29;20031;-92
2022/03/12 06:00:13;;;;;;;40.17;16.65;;;;;;;-1.38;100.00;95229.19;4942471;29;20314;-92
2022/03/12 06:02:49;;;;;;;48.50;16.98;;;;;;;-1.46;100.00;95235.19;4942653;29;20023;-92
2022/03/12 06:05:16;;;;;;;41.20;16.85;;;;;;;-1.49;100.00;95243.25;4942586;29;20027;-93
2022/03/12 06:07:45;;;;;;;36.08;15.65;;;;;;;-1.44;100.00;95243.53;4958326;29;20313;-92
2022/03/12 06:10:13;;;;;;;39.88;16.80;;;;;;;-1.44;100.00;95237.56;4942171;29;20027;-92
2022/03/12 06:12:42;;;;;;;43.70;17.75;;;;;;;-1.55;100.00;95245.69;4957986;29;20121;-92
2022/03/12 06:15:08;;;;;;;43.80;17.88;;;;;;;-1.48;100.00;95244.84;4942225;29;20111;-92
2022/03/12 06:17:33;;;;;;;45.20;19.65;;;;;;;-1.26;100.00;95249.38;4942155;29;20027;-92
2022/03/12 06:19:59;;;;;;;47.53;18.25;;;;;;;-1.13;100.00;95254.75;4957451;29;20039;-91
2022/03/12 06:22:24;;;;;;;47.15;19.85;;;;;;;-1.00;100.00;95254.97;4942398;29;20030;-91
2022/03/12 06:24:50;;;;;;;45.05;18.15;;;;;;;-0.86;100.00;95255.97;4942319;29;20027;-91
2022/03/12 06:27:20;;;;;;;43.70;17.02;;;;;;;-0.74;100.00;95258.94;4926086;29;20352;-91
2022/03/12 06:29:46;;;;;;;43.55;18.10;;;;;;;-0.60;100.00;95272.00;4957562;29;20027;-91
2022/03/12 06:32:13;;;;;;;42.47;17.40;;;;;;;-0.45;100.00;95272.03;4942192;29;20038;-90
2022/03/12 06:34:41;;;;;;;42.20;16.67;;;;;;;-0.38;100.00;95283.22;4957745;29;20027;-92
2022/03/12 06:37:07;;;;;;;42.00;17.23;;;;;;;-0.27;100.00;95269.16;4926289;29;20027;-92
2022/03/12 06:39:33;;;;;;;37.17;15.75;;;;;;;-0.02;100.00;95276.59;4942050;29;20058;-92
2022/03/12 06:41:59;;;;;;;38.50;16.58;;;;;;;-0.06;100.00;95283.91;4957203;29;20070;-92
2022/03/12 06:44:31;;;;;;;41.10;16.35;;;;;;;0.08;100.00;95287.44;4957944;29;20062;-92
2022/03/12 06:46:57;;;;;;;46.03;17.57;;;;;;;0.19;100.00;95293.13;4927020;29;20030;-92
2022/03/12 06:49:23;;;;;;;38.90;15.95;;;;;;;0.57;100.00;95292.97;4941683;29;20259;-92
2022/03/12 06:51:48;;;;;;;39.55;16.75;;;;;;;0.47;100.00;95287.31;4941041;29;20030;-92
2022/03/12 06:54:14;;;;;;;38.78;16.42;;;;;;;0.66;100.00;95281.56;4957817;29;20034;-92
2022/03/12 06:56:39;;;;;;;39.15;16.88;;;;;;;0.63;100.00;95275.97;4957524;29;20061;-92
2022/03/12 06:59:08;;;;;;;35.92;16.30;;;;;;;0.64;100.00;95280.16;4925892;29;20023;-91
2022/03/12 07:01:34;;;;;;;44.13;17.77;;;;;;;1.04;100.00;95284.94;4956986;29;20090;-92
2022/03/12 07:03:59;;;;;;;40.67;16.52;;;;;;;1.02;100.00;95289.47;4941981;29;20067;-92
2022/03/12 07:06:28;;;;;;;37.83;17.38;;;;;;;1.11;100.00;95289.19;4942144;29;20417;-93
2022/03/12 07:08:54;;;;;;;38.72;17.48;;;;;;;1.26;100.00;95291.69;4955910;29;20465;-92
2022/03/12 07:11:20;;;;;;;37.60;16.77;;;;;;;1.18;100.00;95294.41;4957049;29;20035;-92
2022/03/12 07:13:46;;;;;;;38.72;17.10;;;;;;;1.27;100.00;95298.44;4957241;29;20031;-92
2022/03/12 07:16:11;;;;;;;36.00;15.32;;;;;;;1.34;100.00;95297.72;4941439;29;20031;-92
2022/03/12 07:18:38;;;;;;;35.63;17.38;;;;;;;1.35;100.00;95302.66;4941378;29;20038;-92
2022/03/12 07:21:07;;;;;;;40.58;17.38;;;;;;;1.42;100.00;95300.13;4957152;29;20074;-92
2022/03/12 07:23:33;;;;;;;42.45;17.35;;;;;;;1.57;100.00;95302.66;4941142;29;20035;-91
2022/03/12 07:25:59;;;;;;;39.83;17.35;;;;;;;1.54;100.00;95313.38;4957224;29;20475;-92
2022/03/12 07:28:24;;;;;;;37.72;17.10;;;;;;;1.81;100.00;95308.41;4941379;29;20035;-89
2022/03/12 07:30:50;;;;;;;38.40;16.38;;;;;;;1.86;100.00;95315.56;4956722;29;20031;-89
2022/03/12 07:33:16;;;;;;;39.30;17.30;;;;;;;1.97;100.00;95325.38;4958551;29;20038;-91
2022/03/12 07:35:42;;;;;;;38.80;17.75;;;;;;;2.21;100.00;95328.53;4941355;29;20028;-92
2022/03/12 07:38:07;;;;;;;43.13;17.88;;;;;;;2.30;100.00;95327.38;4957383;29;20039;-91
2022/03/12 07:40:33;;;;;;;42.33;17.60;;;;;;;2.28;100.00;95320.81;4956621;29;20035;-91
2022/03/12 07:42:59;;;;;;;41.55;19.30;;;;;;;2.21;100.00;95318.97;4941291;29;20444;-91
2022/03/12 07:45:25;;;;;;;45.42;19.88;;;;;;;2.28;100.00;95323.38;4925519;29;20038;-91
2022/03/12 07:47:52;;;;;;;42.50;18.48;;;;;;;2.33;100.00;95327.00;4941170;29;20027;-92
2022/03/12 07:50:19;;;;;;;43.33;19.20;;;;;;;2.25;100.00;95324.56;4956553;29;20031;-91
2022/03/12 07:52:44;;;;;;;45.08;18.80;;;;;;;2.44;100.00;95324.84;4956974;29;20122;-92
2022/03/12 07:55:11;;;;;;;45.65;18.58;;;;;;;2.71;96.08;95327.53;4941121;29;20187;-92
2022/03/12 07:57:38;;;;;;;44.95;18.55;;;;;;;2.60;100.00;95324.53;4941050;29;20059;-92
2022/03/12 08:00:06;;;;;;;40.03;17.52;;;;;;;2.65;96.02;95329.13;4925472;29;20448;-91
2022/03/12 08:02:32;;;;;;;42.03;18.38;;;;;;;2.83;100.00;95328.59;4941878;29;20030;-92
2022/03/12 08:04:57;;;;;;;40.85;18.42;;;;;;;2.74;96.00;95327.19;4944526;29;20347;-92
2022/03/12 08:07:24;;;;;;;41.03;17.90;;;;;;;2.63;100.00;95333.69;4944702;29;20515;-92
2022/03/12 08:09:55;;;;;;;47.90;19.70;;;;;;;2.59;100.00;95330.72;4959972;29;20062;-92
2022/03/12 08:12:25;;;;;;;41.33;19.10;;;;;;;3.00;100.00;95325.63;4944701;29;20023;-92
2022/03/12 08:14:51;;;;;;;32.35;14.65;;;;;;;3.07;94.25;95329.06;4944718;29;20027;-92
2022/03/12 08:17:19;;;;;;;36.63;15.45;;;;;;;3.10;87.01;95334.66;4944385;29;20065;-92
2022/03/12 08:19:44;;;;;;;37.05;15.73;;;;;;;3.20;84.31;95331.69;4943827;29;20035;-92
2022/03/12 08:22:10;;;;;;;36.67;16.17;;;;;;;3.26;83.88;95340.47;4944190;29;20023;-93
2022/03/12 08:24:36;;;;;;;31.77;15.88;;;;;;;3.37;80.75;95341.66;4944499;29;20023;-91
2022/03/12 08:27:01;;;;;;;42.33;16.17;;;;;;;3.34;75.37;95339.47;4928472;29;20129;-92
2022/03/12 08:29:27;;;;;;;30.02;13.27;;;;;;;3.42;70.94;95341.06;4944366;29;20031;-92
2022/03/12 08:31:53;;;;;;;34.60;14.30;;;;;;;3.35;69.50;95334.06;4959855;29;20063;-92
2022/03/12 08:34:18;;;;;;;35.13;15.70;;;;;;;3.37;70.48;95332.13;4943891;29;20034;-90
2022/03/12 08:36:45;;;;;;;34.25;14.80;;;;;;;3.37;75.07;95337.28;4960108;29;20039;-92
2022/03/12 08:39:12;;;;;;;32.72;14.63;;;;;;;3.45;78.24;95341.47;4943839;29;20029;-92
2022/03/12 08:41:38;;;;;;;30.60;14.25;;;;;;;3.14;77.85;95337.63;4927606;29;20131;-92
2022/03/12 08:44:05;;;;;;;30.38;14.23;;;;;;;3.14;80.76;95331.66;4943906;29;20126;-92
2022/03/12 08:46:31;;;;;;;29.95;14.07;;;;;;;3.17;77.73;95337.25;4960112;29;20031;-92
2022/03/12 08:48:56;;;;;;;28.48;13.23;;;;;;;3.03;72.07;95338.22;4943707;29;20034;-92
2022/03/12 08:51:22;;;;;;;30.48;15.02;;;;;;;3.16;75.38;95332.25;4959109;29;20036;-92
2022/03/12 08:53:47;;;;;;;35.00;14.98;;;;;;;3.14;77.74;95342.03;4959492;29;20031;-92
2022/03/12 08:56:12;;;;;;;33.67;14.65;;;;;;;3.56;73.09;95336.69;4927040;29;20070;-92
2022/03/12 08:58:39;;;;;;;29.83;14.02;;;;;;;3.72;78.22;95335.50;4943384;29;20085;-92
2022/03/12 09:01:06;;;;;;;32.83;15.57;;;;;;;3.58;71.67;95347.66;4927527;29;20027;-92
2022/03/12 09:03:33;;;;;;;37.05;15.55;;;;;;;3.61;80.33;95348.06;4927699;29;20027;-92
2022/03/12 09:05:58;;;;;;;32.22;15.02;;;;;;;3.78;68.58;95345.06;4943665;29;20111;-91
2022/03/12 09:08:24;;;;;;;32.15;14.00;;;;;;;3.67;72.45;95341.28;4943735;29;20031;-92
2022/03/12 09:10:49;;;;;;;29.50;14.18;;;;;;;3.68;69.58;95340.28;4942939;29;20416;-93
2022/03/12 09:13:17;;;;;;;31.20;14.90;;;;;;;3.68;66.92;95350.66;4943166;28;20082;-92
2022/03/12 09:15:43;;;;;;;34.42;14.98;;;;;;;3.71;67.68;95346.88;4943315;29;20066;-92
2022/03/12 09:18:09;;;;;;;38.25;15.45;;;;;;;3.81;66.65;95348.06;4958902;29;20063;-93
2022/03/12 09:20:42;;;;;;;34.85;15.25;;;;;;;3.76;72.69;95353.06;4927200;29;20031;-93
2022/03/12 09:23:07;;;;;;;32.17;13.80;;;;;;;3.95;70.96;95346.28;4944337;29;20114;-92
2022/03/12 09:25:33;;;;;;;34.75;15.60;;;;;;;3.90;71.69;95353.06;4943060;29;20366;-92
2022/03/12 09:27:59;;;;;;;31.73;14.63;;;;;;;4.02;67.84;95342.88;4942994;29;20031;-92
2022/03/12 09:30:25;;;;;;;35.50;15.20;;;;;;;3.72;69.95;95351.84;4942625;29;20031;-91
2022/03/12 09:32:50;;;;;;;29.02;14.13;;;;;;;3.80;71.87;95349.06;4942861;29;20031;-92
2022/03/12 09:35:16;;;;;;;32.28;14.15;;;;;;;4.00;73.31;95348.25;4942824;29;20118;-89
2022/03/12 09:37:41;;;;;;;29.70;13.02;;;;;;;3.98;76.03;95337.28;4958761;29;20031;-89
2022/03/12 09:40:09;;;;;;;29.23;13.80;;;;;;;4.16;73.56;95349.63;4958393;29;20106;-89
2022/03/12 09:42:34;;;;;;;27.90;13.18;;;;;;;4.10;75.12;95343.44;4927452;29;20038;-89
2022/03/12 09:45:02;;;;;;;33.28;13.98;;;;;;;4.09;73.27;95344.44;4958841;29;20436;-90
2022/03/12 09:47:27;;;;;;;33.58;14.13;;;;;;;4.53;71.99;95343.97;4942486;29;20078;-89
2022/03/12 09:49:53;;;;;;;28.15;13.85;;;;;;;4.42;71.65;95329.81;4958290;29;20031;-89
2022/03/12 09:52:18;;;;;;;32.00;13.57;;;;;;;4.49;68.47;95325.41;4942581;29;20042;-90
2022/03/12 09:54:44;;;;;;;25.92;12.57;;;;;;;4.46;68.13;95333.59;4942534;29;20065;-90
2022/03/12 09:57:10;;;;;;;32.10;13.98;;;;;;;4.71;68.00;95342.50;4942283;29;20118;-89
2022/03/12 09:59:35;;;;;;;29.50;12.57;;;;;;;4.68;68.58;95341.13;4958474;29;20059;-89
2022/03/12 10:02:01;;;;;;;27.92;13.30;;;;;;;4.76;67.09;95337.50;4941877;29;20031;-89
2022/03/12 10:04:28;;;;;;;25.65;13.27;;;;;;;4.78;68.33;95344.06;4942600;29;20051;-90
2022/03/12 10:06:54;;;;;;;34.00;13.35;;;;;;;4.86;66.47;95331.84;4941989;29;20059;-89
2022/03/12 10:09:19;;;;;;;28.45;13.05;;;;;;;4.77;79.96;95319.09;4958167;29;20073;-90
2022/03/12 10:11:45;;;;;;;26.58;12.13;;;;;;;4.94;69.00;95322.03;4941485;29;20032;-90
2022/03/12 10:14:12;;;;;;;26.08;12.32;;;;;;;5.07;72.85;95323.75;4957814;29;20432;-90
2022/03/12 10:16:37;;;;;;;31.15;12.85;;;;;;;4.87;65.27;95320.47;4942108;29;20448;-89
2022/03/12 10:19:03;;;;;;;25.88;12.52;;;;;;;4.59;66.89;95317.19;4942260;29;20038;-89
2022/03/12 10:21:30;;;;;;;29.75;13.63;;;;;;;4.72;68.50;95312.94;4941474;29;20340;-90
2022/03/12 10:23:56;;;;;;;30.05;12.88;;;;;;;4.71;71.20;95304.38;4941575;29;20035;-91
2022/03/12 10:26:21;;;;;;;32.85;13.50;;;;;;;5.14;77.72;95317.72;4940879;29;20058;-92
2022/03/12 10:28:47;;;;;;;28.58;12.02;;;;;;;4.81;67.57;95317.72;4957533;29;20432;-91
2022/03/12 10:31:14;;;;;;;23.10;11.32;;;;;;;4.86;67.70;95319.66;4941319;29;20460;-89
2022/03/12 10:33:41;;;;;;;27.52;12.73;;;;;;;4.97;69.43;95325.22;4942023;29;20481;-89
2022/03/12 10:36:11;;;;;;;32.05;12.10;;;;;;;4.64;69.57;95312.19;4941828;29;20034;-89
2022/03/12 10:38:39;;;;;;;26.30;12.52;;;;;;;4.44;72.27;95316.63;4941712;29;20031;-90
2022/03/12 10:41:06;;;;;;;27.00;12.02;;;;;;;4.77;70.75;95310.53;4941168;29;20344;-90
2022/03/12 10:43:43;;;;;;;24.77;11.73;;;;;;;5.00;73.23;95317.81;4941809;29;20029;-89
2022/03/12 10:46:09;;;;;;;23.60;11.73;;;;;;;5.23;70.09;95309.47;4957549;29;20038;-89
2022/03/12 10:48:38;;;;;;;25.75;12.20;;;;;;;5.18;69.67;95318.91;4941676;29;20059;-91
2022/03/12 10:51:04;;;;;;;22.17;10.82;;;;;;;5.03;71.30;95311.41;4940708;29;20035;-92
2022/03/12 10:53:31;;;;;;;34.63;12.38;;;;;;;4.79;71.07;95308.53;4941440;29;20503;-92
2022/03/12 10:55:56;;;;;;;27.88;11.57;;;;;;;5.08;69.88;95304.56;4941728;29;20425;-91
2022/03/12 10:58:24;;;;;;;23.00;11.60;;;;;;;4.94;72.98;95300.44;4941589;29;20067;-91
2022/03/12 11:01:01;;;;;;;23.27;10.88;;;;;;;4.93;72.19;95301.44;4956892;29;20035;-92
2022/03/12 11:03:28;;;;;;;28.98;11.50;;;;;;;5.20;74.76;95290.91;4941421;29;20027;-92
2022/03/12 11:05:54;;;;;;;25.02;11.23;;;;;;;5.05;72.16;95293.81;4958396;29;20118;-91
2022/03/12 11:08:23;;;;;;;23.88;11.52;;;;;;;4.97;72.56;95296.63;4941433;29;20392;-91
2022/03/12 11:11:05;;;;;;;25.67;12.18;;;;;;;4.90;73.46;95297.47;4941000;29;20382;-92
2022/03/12 11:13:39;;;;;;;23.13;11.60;;;;;;;5.13;74.28;95290.94;4957477;29;20029;-92
2022/03/12 11:16:12;;;;;;;25.30;11.82;;;;;;;5.43;74.25;95281.75;4941369;29;20031;-92
2022/03/12 11:18:39;;;;;;;23.75;11.73;;;;;;;5.06;70.20;95292.81;4941442;29;20031;-91
2022/03/12 11:21:04;;;;;;;28.70;12.40;;;;;;;5.12;70.09;95291.19;4956697;29;20122;-90
2022/03/12 11:23:31;;;;;;;23.98;11.55;;;;;;;5.14;73.26;95283.97;4941381;29;20119;-90
2022/03/12 11:26:06;;;;;;;24.42;12.18;;;;;;;5.27;71.40;95280.47;4956962;29;20055;-90
2022/03/12 11:28:35;;;;;;;22.50;11.55;;;;;;;5.18;72.47;95290.31;4925334;29;20035;-89
2022/03/12 11:31:01;;;;;;;31.08;12.20;;;;;;;5.86;76.08;95294.00;4956074;29;20035;-89
2022/03/12 11:33:27;;;;;;;25.35;12.75;;;;;;;5.54;69.91;95288.06;4940485;29;20110;-89
2022/03/12 11:36:09;;;;;;;27.17;12.43;;;;;;;5.87;74.32;95286.97;4956734;29;20070;-89
2022/03/12 11:38:35;;;;;;;30.80;13.07;;;;;;;6.02;73.06;95284.09;4958810;29;20027;-90
2022/03/12 11:41:05;;;;;;;38.55;13.23;;;;;;;5.86;69.39;95291.41;4943171;29;20021;-89
2022/03/12 11:43:32;;;;;;;29.17;13.18;;;;;;;5.82;79.72;95282.44;4943504;29;20024;-90
2022/03/12 11:46:03;;;;;;;23.30;12.45;;;;;;;5.92;71.23;95274.16;4943567;29;20027;-90
2022/03/12 11:48:31;;;;;;;26.30;12.65;;;;;;;6.07;79.36;95269.41;4959464;29;20027;-90
2022/03/12 11:50:56;;;;;;;26.80;12.63;;;;;;;5.98;75.17;95257.66;4958852;29;20432;-89
2022/03/12 11:53:22;;;;;;;21.40;11.48;;;;;;;5.73;68.10;95261.09;4943491;29;20031;-89
2022/03/12 11:55:51;;;;;;;23.55;11.80;;;;;;;5.88;69.60;95263.38;4959478;29;20038;-90
2022/03/12 11:58:19;;;;;;;24.65;12.75;;;;;;;5.96;68.99;95262.28;4959153;29;20332;-90
2022/03/12 12:00:47;;;;;;;28.20;12.50;;;;;;;5.15;69.47;95260.34;4927116;29;20031;-89
2022/03/12 12:03:14;;;;;;;27.52;12.95;;;;;;;4.97;71.54;95258.50;4959453;29;20101;-89
2022/03/12 12:05:43;;;;;;;24.30;12.95;;;;;;;5.40;73.13;95259.59;4927803;29;20027;-90
2022/03/12 12:08:13;;;;;;;27.17;12.90;;;;;;;5.85;72.41;95263.00;4951869;29;20452;-90
2022/03/12 12:10:42;;;;;;;27.70;13.40;;;;;;;6.08;69.89;95262.41;4940456;29;20034;-90
2022/03/12 12:13:08;;;;;;;26.08;12.05;;;;;;;6.15;73.35;95249.31;4951469;29;20032;-89
2022/03/12 12:15:36;;;;;;;29.20;14.57;;;;;;;6.19;70.78;95238.25;4924441;29;20126;-89
2022/03/12 12:18:03;;;;;;;27.52;12.98;;;;;;;6.54;75.80;95244.66;4924393;29;20106;-89
2022/03/12 12:20:29;;;;;;;25.67;12.82;;;;;;;6.48;65.12;95241.13;4939910;29;20028;-89
2022/03/12 12:23:00;;;;;;;27.80;13.25;;;;;;;6.02;69.47;95238.03;4940114;29;20409;-90
2022/03/12 12:25:30;;;;;;;28.77;13.63;;;;;;;6.56;73.57;95239.25;4940027;29;20078;-90
2022/03/12 12:27:56;;;;;;;30.33;13.38;;;;;;;6.47;64.87;95234.34;4881505;29;1802410;-90
2022/03/12 12:30:24;;;;;;;28.48;14.18;;;;;;;6.73;65.34;95232.41;4959486;29;20031;-90
2022/03/12 12:32:51;;;;;;;28.05;13.82;;;;;;;6.36;64.35;95222.88;4960858;29;20039;-89
2022/03/12 12:35:20;;;;;;;26.85;13.57;;;;;;;6.56;63.28;95226.22;4959980;29;20123;-90
2022/03/12 12:37:58;;;;;;;28.63;13.27;;;;;;;6.29;62.67;95222.13;4959703;29;20118;-89
2022/03/12 12:40:25;;;;;;;26.42;13.82;;;;;;;5.88;63.76;95220.94;4943437;29;20076;-90
2022/03/12 12:42:52;;;;;;;28.40;14.10;;;;;;;5.74;65.17;95221.13;4944146;29;20086;-89
2022/03/12 12:45:28;;;;;;;29.05;13.38;;;;;;;6.04;66.72;95217.03;4961059;29;20031;-90
2022/03/12 12:48:06;;;;;;;25.58;13.07;;;;;;;6.00;63.85;95210.63;4943847;28;20425;-90
2022/03/12 12:50:32;;;;;;;25.95;13.68;;;;;;;6.14;63.59;95219.09;4959629;29;20089;-90
2022/03/12 12:53:18;;;;;;;31.73;14.15;;;;;;;6.20;63.50;95208.63;4959715;29;20039;-89
2022/03/12 12:55:45;;;;;;;30.35;13.75;;;;;;;6.39;71.22;95208.63;4959707;29;20031;-90
2022/03/12 12:58:11;;;;;;;40.83;15.27;;;;;;;6.23;66.53;95202.19;4959418;29;20023;-90
2022/03/12 13:00:39;;;;;;;27.35;13.73;;;;;;;6.36;62.27;95204.63;4943305;29;20095;-89
2022/03/12 13:03:18;;;;;;;30.38;14.25;;;;;;;6.26;64.46;95203.56;4959508;29;20031;-90
2022/03/12 13:05:56;;;;;;;28.70;13.77;;;;;;;6.02;63.73;95206.81;4943720;29;20126;-90
2022/03/12 13:08:42;;;;;;;26.92;14.23;;;;;;;5.61;63.77;95193.41;4959183;29;20057;-90
2022/03/12 13:11:28;;;;;;;32.53;13.90;;;;;;;5.68;66.16;95189.97;4958714;29;20395;-90
2022/03/12 13:13:55;;;;;;;29.77;14.02;;;;;;;6.00;61.76;95192.44;4943515;29;20038;-91
2022/03/12 13:16:21;;;;;;;27.20;13.80;;;;;;;6.21;66.03;95188.63;4959452;29;20038;-90
2022/03/12 13:18:46;;;;;;;30.27;14.88;;;;;;;6.22;61.14;95187.59;4943236;29;20027;-90
2022/03/12 13:21:27;;;;;;;26.65;14.00;;;;;;;6.16;nan;95191.88;4958477;29;20027;-90
2022/03/12 13:23:52;;;;;;;30.90;14.80;;;;;;;6.58;64.37;95180.72;4943088;29;20031;-91
2022/03/12 13:26:18;;;;;;;31.48;14.43;;;;;;;6.68;60.61;95187.22;4927402;29;20039;-90
2022/03/12 13:28:47;;;;;;;30.23;14.88;;;;;;;6.48;59.52;95172.66;4943257;29;20031;-90
2022/03/12 13:31:23;;;;;;;34.10;15.15;;;;;;;6.34;60.31;95177.22;4958750;29;20035;-90
2022/03/12 13:34:07;;;;;;;31.35;15.48;;;;;;;6.54;62.44;95179.56;4942915;29;20417;-90
2022/03/12 13:36:35;;;;;;;33.35;14.75;;;;;;;6.62;65.42;95171.47;4958687;29;20355;-90
2022/03/12 13:39:02;;;;;;;27.90;14.65;;;;;;;6.48;58.93;95178.66;4942914;29;20027;-90
2022/03/12 13:41:28;;;;;;;32.65;14.80;;;;;;;6.70;60.56;95175.56;4942300;29;20030;-90
2022/03/12 13:43:55;;;;;;;32.25;15.02;;;;;;;6.91;59.34;95176.06;4958606;29;20031;-90
2022/03/12 13:46:28;;;;;;;30.65;14.48;;;;;;;7.15;58.56;95170.88;4942696;29;20027;-90
2022/03/12 13:49:01;;;;;;;29.92;13.75;;;;;;;6.91;58.08;95163.84;4958503;29;20030;-91